createdAt,value
2023-05-17T00:00:10.278Z,94768.00
2023-05-17T00:01:10.311Z,94768.00
2023-05-17T00:02:10.325Z,94770.00
2023-05-17T00:03:10.433Z,94768.00
2023-05-17T00:04:10.428Z,94770.00
2023-05-17T00:05:10.469Z,94772.00
2023-05-17T00:06:10.497Z,94772.00
2023-05-17T00:07:10.444Z,94772.00
2023-05-17T00:08:10.527Z,94774.00
2023-05-17T00:09:10.485Z,94774.00
2023-05-17T00:10:10.540Z,94774.00
2023-05-17T00:11:10.693Z,94774.00
2023-05-17T00:12:10.579Z,94776.00
2023-05-17T00:13:10.605Z,94776.00
2023-05-17T00:14:10.667Z,94774.00
2023-05-17T00:15:10.729Z,94774.00
2023-05-17T00:16:10.684Z,94772.00
2023-05-17T00:17:10.689Z,94772.00
2023-05-17T00:18:10.820Z,94774.00
2023-05-17T00:19:10.969Z,94774.00
2023-05-17T00:20:10.832Z,94774.00
2023-05-17T00:21:10.822Z,94774.00
2023-05-17T00:22:10.826Z,94774.00
2023-05-17T00:23:10.895Z,94776.00
2023-05-17T00:24:10.873Z,94777.00
2023-05-17T00:25:10.911Z,94777.00
2023-05-17T00:26:10.959Z,94779.00
2023-05-17T00:27:10.974Z,94781.00
2023-05-17T00:28:10.973Z,94779.00
2023-05-17T00:29:10.968Z,94781.00
2023-05-17T00:30:11.042Z,94783.00
2023-05-17T00:31:11.334Z,94781.00
2023-05-17T00:32:11.100Z,94783.00
2023-05-17T00:33:11.109Z,94783.00
2023-05-17T00:34:11.126Z,94783.00
2023-05-17T00:35:11.196Z,94783.00
2023-05-17T00:36:11.246Z,94781.00
2023-05-17T00:37:11.245Z,94783.00
2023-05-17T00:38:11.248Z,94781.00
2023-05-17T00:39:11.293Z,94781.00
2023-05-17T00:40:11.302Z,94781.00
2023-05-17T00:41:11.289Z,94783.00
2023-05-17T00:42:11.432Z,94785.00
2023-05-17T00:43:11.386Z,94783.00
2023-05-17T00:44:11.398Z,94783.00
2023-05-17T00:45:11.449Z,94783.00
2023-05-17T00:46:11.517Z,94783.00
2023-05-17T00:47:11.593Z,94783.00
2023-05-17T00:48:11.632Z,94783.00
2023-05-17T00:49:11.520Z,94785.00
2023-05-17T00:50:11.628Z,94783.00
2023-05-17T00:51:11.644Z,94785.00
2023-05-17T00:52:11.647Z,94787.00
2023-05-17T00:53:11.657Z,94787.00
2023-05-17T00:54:11.678Z,94783.00
2023-05-17T00:55:11.779Z,94785.00
2023-05-17T00:56:11.747Z,94783.00
2023-05-17T00:57:11.839Z,94787.00
2023-05-17T00:58:11.790Z,94787.00
2023-05-17T00:59:11.875Z,94791.00
2023-05-17T01:00:11.875Z,94789.00
2023-05-17T01:01:11.922Z,94787.00
2023-05-17T01:02:11.925Z,94789.00
2023-05-17T01:03:12.150Z,94785.00
2023-05-17T01:04:12.068Z,94785.00
2023-05-17T01:05:12.002Z,94787.00
2023-05-17T01:06:11.999Z,94785.00
2023-05-17T01:07:12.068Z,94787.00
2023-05-17T01:08:12.112Z,94787.00
2023-05-17T01:09:12.171Z,94789.00
2023-05-17T01:10:12.190Z,94791.00
2023-05-17T01:11:12.172Z,94789.00
2023-05-17T01:12:12.207Z,94787.00
2023-05-17T01:13:12.227Z,94789.00
2023-05-17T01:14:12.262Z,94791.00
2023-05-17T01:15:12.317Z,94789.00
2023-05-17T01:16:12.358Z,94787.00
2023-05-17T01:17:12.361Z,94791.00
2023-05-17T01:18:12.460Z,94789.00
2023-05-17T01:19:12.659Z,94789.00
2023-05-17T01:20:12.557Z,94791.00
2023-05-17T01:21:12.511Z,94789.00
2023-05-17T01:22:12.493Z,94789.00
2023-05-17T01:23:12.529Z,94793.00
2023-05-17T01:24:12.531Z,94793.00
2023-05-17T01:25:12.549Z,94795.00
2023-05-17T01:26:12.542Z,94793.00
2023-05-17T01:27:12.601Z,94795.00
2023-05-17T01:28:12.662Z,94797.00
2023-05-17T01:29:12.614Z,94797.00
2023-05-17T01:30:12.655Z,94799.00
2023-05-17T01:31:12.656Z,94801.00
2023-05-17T01:32:12.751Z,94803.00
2023-05-17T01:33:12.801Z,94803.00
2023-05-17T01:34:12.742Z,94803.00
2023-05-17T01:35:12.818Z,94803.00
2023-05-17T01:36:12.811Z,94803.00
2023-05-17T01:37:12.814Z,94803.00
2023-05-17T01:38:12.875Z,94807.00
2023-05-17T01:39:12.939Z,94805.00
2023-05-17T01:40:12.962Z,94807.00
2023-05-17T01:41:12.913Z,94807.00
2023-05-17T01:42:12.904Z,94807.00
2023-05-17T01:43:12.927Z,94809.00
2023-05-17T01:44:12.935Z,94811.00
2023-05-17T01:45:12.991Z,94809.00
2023-05-17T01:46:12.974Z,94805.00
2023-05-17T01:47:12.971Z,94809.00
2023-05-17T01:48:13.054Z,94807.00
2023-05-17T01:49:13.042Z,94807.00
2023-05-17T01:50:13.080Z,94809.00
2023-05-17T01:51:13.122Z,94807.00
2023-05-17T01:52:13.117Z,94809.00
2023-05-17T01:53:13.138Z,94811.00
2023-05-17T01:54:13.132Z,94807.00
2023-05-17T01:55:13.148Z,94809.00
2023-05-17T01:56:13.220Z,94813.00
2023-05-17T01:57:13.244Z,94815.00
2023-05-17T01:58:13.233Z,94817.00
2023-05-17T01:59:13.225Z,94819.00
2023-05-17T02:00:13.275Z,94821.00
2023-05-17T02:01:13.369Z,94821.00
2023-05-17T02:02:13.360Z,94823.00
2023-05-17T02:03:13.309Z,94823.00
2023-05-17T02:04:13.430Z,94821.00
2023-05-17T02:05:13.448Z,94823.00
2023-05-17T02:06:13.379Z,94823.00
2023-05-17T02:07:13.554Z,94824.00
2023-05-17T02:08:13.446Z,94824.00
2023-05-17T02:09:13.504Z,94826.00
2023-05-17T02:10:13.545Z,94824.00
2023-05-17T02:11:13.527Z,94828.00
2023-05-17T02:12:13.545Z,94826.00
2023-05-17T02:13:13.650Z,94828.00
2023-05-17T02:14:13.645Z,94828.00
2023-05-17T02:15:13.604Z,94828.00
2023-05-17T02:16:13.689Z,94830.00
2023-05-17T02:17:13.695Z,94828.00
2023-05-17T02:18:13.821Z,94830.00
2023-05-17T02:19:13.811Z,94834.00
2023-05-17T02:20:13.708Z,94836.00
2023-05-17T02:21:13.858Z,94836.00
2023-05-17T02:22:13.748Z,94840.00
2023-05-17T02:23:13.885Z,94838.00
2023-05-17T02:24:13.847Z,94838.00
2023-05-17T02:25:13.852Z,94840.00
2023-05-17T02:26:13.937Z,94840.00
2023-05-17T02:27:13.941Z,94842.00
2023-05-17T02:28:13.920Z,94842.00
2023-05-17T02:29:13.954Z,94842.00
2023-05-17T02:30:15.087Z,94844.00
2023-05-17T02:31:13.983Z,94844.00
2023-05-17T02:32:14.058Z,94846.00
2023-05-17T02:33:14.108Z,94846.00
2023-05-17T02:34:14.109Z,94846.00
2023-05-17T02:35:14.100Z,94848.00
2023-05-17T02:36:14.151Z,94848.00
2023-05-17T02:37:14.194Z,94850.00
2023-05-17T02:38:14.230Z,94850.00
2023-05-17T02:39:14.303Z,94856.00
2023-05-17T02:40:14.265Z,94852.00
2023-05-17T02:41:14.271Z,94854.00
2023-05-17T02:42:14.329Z,94856.00
2023-05-17T02:43:14.350Z,94856.00
2023-05-17T02:44:14.370Z,94858.00
2023-05-17T02:45:14.384Z,94856.00
2023-05-17T02:46:14.399Z,94862.00
2023-05-17T02:47:14.454Z,94862.00
2023-05-17T02:48:14.506Z,94864.00
2023-05-17T02:49:14.582Z,94866.00
2023-05-17T02:50:14.528Z,94868.00
2023-05-17T02:51:14.545Z,94870.00
2023-05-17T02:52:14.562Z,94872.00
2023-05-17T02:53:14.618Z,94876.00
2023-05-17T02:54:14.672Z,94876.00
2023-05-17T02:55:14.733Z,94878.00
2023-05-17T02:56:14.670Z,94876.00
2023-05-17T02:57:14.671Z,94879.00
2023-05-17T02:58:14.742Z,94881.00
2023-05-17T02:59:14.762Z,94881.00
2023-05-17T03:00:14.782Z,94885.00
2023-05-17T03:01:14.810Z,94885.00
2023-05-17T03:02:14.844Z,94889.00
2023-05-17T03:03:14.963Z,94893.00
2023-05-17T03:04:14.943Z,94901.00
2023-05-17T03:05:14.937Z,94903.00
2023-05-17T03:06:14.944Z,94905.00
2023-05-17T03:07:14.981Z,94905.00
2023-05-17T03:08:15.011Z,94907.00
2023-05-17T03:09:15.063Z,94907.00
2023-05-17T03:10:15.035Z,94913.00
2023-05-17T03:11:15.132Z,94913.00
2023-05-17T03:12:15.123Z,94913.00
2023-05-17T03:13:15.163Z,94915.00
2023-05-17T03:14:15.184Z,94919.00
2023-05-17T03:15:15.182Z,94917.00
2023-05-17T03:16:15.208Z,94921.00
2023-05-17T03:17:15.281Z,94919.00
2023-05-17T03:18:15.341Z,94924.00
2023-05-17T03:19:15.402Z,94923.00
2023-05-17T03:20:15.413Z,94926.00
2023-05-17T03:21:15.413Z,94924.00
2023-05-17T03:22:15.369Z,94926.00
2023-05-17T03:23:15.472Z,94926.00
2023-05-17T03:24:15.482Z,94928.00
2023-05-17T03:25:15.522Z,94930.00
2023-05-17T03:26:15.564Z,94932.00
2023-05-17T03:27:15.669Z,94930.00
2023-05-17T03:28:15.602Z,94932.00
2023-05-17T03:29:15.673Z,94932.00
2023-05-17T03:30:15.663Z,94934.00
2023-05-17T03:31:15.678Z,94934.00
2023-05-17T03:32:15.739Z,94936.00
2023-05-17T03:33:15.878Z,94940.00
2023-05-17T03:34:15.801Z,94940.00
2023-05-17T03:35:15.809Z,94940.00
2023-05-17T03:36:15.853Z,94940.00
2023-05-17T03:37:15.925Z,94944.00
2023-05-17T03:38:15.875Z,94946.00
2023-05-17T03:39:15.940Z,94948.00
2023-05-17T03:40:15.946Z,94948.00
2023-05-17T03:41:15.981Z,94948.00
2023-05-17T03:42:16.072Z,94952.00
2023-05-17T03:43:16.113Z,94950.00
2023-05-17T03:44:16.083Z,94952.00
2023-05-17T03:45:16.093Z,94952.00
2023-05-17T03:46:16.109Z,94954.00
2023-05-17T03:47:16.150Z,94956.00
2023-05-17T03:48:16.242Z,94956.00
2023-05-17T03:49:16.313Z,94958.00
2023-05-17T03:50:16.233Z,94958.00
2023-05-17T03:51:16.265Z,94960.00
2023-05-17T03:52:16.284Z,94962.00
2023-05-17T03:53:16.327Z,94964.00
2023-05-17T03:54:16.348Z,94962.00
2023-05-17T03:55:16.385Z,94964.00
2023-05-17T03:56:16.397Z,94964.00
2023-05-17T03:57:16.409Z,94966.00
2023-05-17T03:58:16.480Z,94966.00
2023-05-17T03:59:16.572Z,94964.00
2023-05-17T04:00:16.553Z,94971.00
2023-05-17T04:01:16.542Z,94970.00
2023-05-17T04:02:16.548Z,94970.00
2023-05-17T04:03:17.947Z,94971.00
2023-05-17T04:04:16.610Z,94966.00
2023-05-17T04:05:16.604Z,94970.00
2023-05-17T04:06:16.574Z,94973.00
2023-05-17T04:07:16.577Z,94975.00
2023-05-17T04:08:16.540Z,94975.00
2023-05-17T04:09:16.556Z,94979.00
2023-05-17T04:10:16.545Z,94977.00
2023-05-17T04:11:16.576Z,94981.00
2023-05-17T04:12:16.563Z,94985.00
2023-05-17T04:13:16.515Z,94987.00
2023-05-17T04:14:16.534Z,94985.00
2023-05-17T04:15:16.626Z,94985.00
2023-05-17T04:16:16.549Z,94983.00
2023-05-17T04:17:17.061Z,94981.00
2023-05-17T04:18:16.563Z,94983.00
2023-05-17T04:19:16.571Z,94983.00
2023-05-17T04:20:16.488Z,94981.00
2023-05-17T04:21:16.473Z,94979.00
2023-05-17T04:22:16.448Z,94977.00
2023-05-17T04:23:16.459Z,94977.00
2023-05-17T04:24:16.449Z,94979.00
2023-05-17T04:25:16.444Z,94981.00
2023-05-17T04:26:16.465Z,94983.00
2023-05-17T04:27:16.453Z,94985.00
2023-05-17T04:28:16.419Z,94985.00
2023-05-17T04:29:16.395Z,94989.00
2023-05-17T04:30:16.393Z,94987.00
2023-05-17T04:31:16.495Z,94991.00
2023-05-17T04:32:16.404Z,94991.00
2023-05-17T04:33:16.525Z,94993.00
2023-05-17T04:34:16.393Z,94993.00
2023-05-17T04:35:16.362Z,94995.00
2023-05-17T04:36:16.374Z,94997.00
2023-05-17T04:37:16.435Z,94999.00
2023-05-17T04:38:16.372Z,95001.00
2023-05-17T04:39:17.397Z,95003.00
2023-05-17T04:40:16.306Z,95007.00
2023-05-17T04:41:16.309Z,95007.00
2023-05-17T04:42:16.310Z,95009.00
2023-05-17T04:43:16.307Z,95011.00
2023-05-17T04:44:16.279Z,95009.00
2023-05-17T04:45:16.324Z,95011.00
2023-05-17T04:46:16.373Z,95013.00
2023-05-17T04:47:16.579Z,95011.00
2023-05-17T04:48:16.606Z,95013.00
2023-05-17T04:49:16.510Z,95013.00
2023-05-17T04:50:16.573Z,95011.00
2023-05-17T04:51:16.626Z,95015.00
2023-05-17T04:52:16.691Z,95015.00
2023-05-17T04:53:16.745Z,95015.00
2023-05-17T04:54:16.787Z,95015.00
2023-05-17T04:55:16.856Z,95015.00
2023-05-17T04:56:16.924Z,95015.00
2023-05-17T04:57:16.962Z,95015.00
2023-05-17T04:58:17.023Z,95013.00
2023-05-17T04:59:17.093Z,95017.00
2023-05-17T05:00:17.180Z,95015.00
2023-05-17T05:01:17.222Z,95017.00
2023-05-17T05:02:17.328Z,95018.00
2023-05-17T05:03:17.461Z,95022.00
2023-05-17T05:04:17.471Z,95024.00
2023-05-17T05:05:17.406Z,95024.00
2023-05-17T05:06:17.444Z,95022.00
2023-05-17T05:07:17.500Z,95026.00
2023-05-17T05:08:17.513Z,95028.00
2023-05-17T05:09:17.570Z,95030.00
2023-05-17T05:10:17.656Z,95032.00
2023-05-17T05:11:17.697Z,95036.00
2023-05-17T05:12:17.858Z,95036.00
2023-05-17T05:13:17.856Z,95036.00
2023-05-17T05:14:17.859Z,95036.00
2023-05-17T05:15:17.920Z,95038.00
2023-05-17T05:16:17.993Z,95036.00
2023-05-17T05:17:17.980Z,95040.00
2023-05-17T05:18:18.232Z,95040.00
2023-05-17T05:19:18.282Z,95042.00
2023-05-17T05:20:18.173Z,95044.00
2023-05-17T05:21:18.240Z,95044.00
2023-05-17T05:22:18.255Z,95048.00
2023-05-17T05:23:18.298Z,95050.00
2023-05-17T05:24:18.357Z,95048.00
2023-05-17T05:25:18.411Z,95050.00
2023-05-17T05:26:18.482Z,95048.00
2023-05-17T05:27:18.515Z,95052.00
2023-05-17T05:28:18.607Z,95050.00
2023-05-17T05:29:18.640Z,95050.00
2023-05-17T05:30:18.665Z,95052.00
2023-05-17T05:31:18.787Z,95054.00
2023-05-17T05:32:18.784Z,95050.00
2023-05-17T05:33:18.957Z,95052.00
2023-05-17T05:34:18.859Z,95054.00
2023-05-17T05:35:18.909Z,95052.00
2023-05-17T05:36:18.990Z,95052.00
2023-05-17T05:37:19.076Z,95052.00
2023-05-17T05:38:19.127Z,95054.00
2023-05-17T05:39:19.208Z,95052.00
2023-05-17T05:40:19.259Z,95052.00
2023-05-17T05:41:19.453Z,95054.00
2023-05-17T05:42:19.353Z,95050.00
2023-05-17T05:43:20.223Z,95056.00
2023-05-17T05:44:19.454Z,95056.00
2023-05-17T05:45:19.531Z,95058.00
2023-05-17T05:46:19.611Z,95064.00
2023-05-17T05:47:19.621Z,95065.00
2023-05-17T05:48:19.789Z,95062.00
2023-05-17T05:49:19.710Z,95064.00
2023-05-17T05:50:19.800Z,95064.00
2023-05-17T05:51:22.468Z,95062.00
2023-05-17T05:52:19.802Z,95065.00
2023-05-17T05:53:20.088Z,95067.00
2023-05-17T05:54:19.800Z,95062.00
2023-05-17T05:55:19.815Z,95069.00
2023-05-17T05:56:19.758Z,95069.00
2023-05-17T05:57:19.761Z,95069.00
2023-05-17T05:58:19.743Z,95073.00
2023-05-17T05:59:19.745Z,95071.00
2023-05-17T06:00:19.738Z,95071.00
2023-05-17T06:01:19.741Z,95071.00
2023-05-17T06:02:19.778Z,95075.00
2023-05-17T06:03:19.752Z,95073.00
2023-05-17T06:04:22.589Z,95071.00
2023-05-17T06:05:19.785Z,95069.00
2023-05-17T06:06:19.874Z,95075.00
2023-05-17T06:07:19.928Z,95071.00
2023-05-17T06:08:19.703Z,95075.00
2023-05-17T06:09:19.698Z,95075.00
2023-05-17T06:10:19.689Z,95075.00
2023-05-17T06:11:19.670Z,95077.00
2023-05-17T06:12:19.645Z,95077.00
2023-05-17T06:13:19.688Z,95077.00
2023-05-17T06:14:19.649Z,95077.00
2023-05-17T06:15:19.690Z,95073.00
2023-05-17T06:16:19.744Z,95079.00
2023-05-17T06:17:19.743Z,95077.00
2023-05-17T06:18:20.017Z,95079.00
2023-05-17T06:19:19.987Z,95075.00
2023-05-17T06:20:19.935Z,95081.00
2023-05-17T06:21:19.952Z,95079.00
2023-05-17T06:22:20.017Z,95077.00
2023-05-17T06:23:20.128Z,95077.00
2023-05-17T06:24:20.095Z,95081.00
2023-05-17T06:25:20.125Z,95081.00
2023-05-17T06:26:20.189Z,95079.00
2023-05-17T06:27:20.247Z,95081.00
2023-05-17T06:28:20.403Z,95083.00
2023-05-17T06:29:20.309Z,95083.00
2023-05-17T06:30:20.385Z,95085.00
2023-05-17T06:31:21.234Z,95083.00
2023-05-17T06:32:20.414Z,95087.00
2023-05-17T06:33:20.563Z,95087.00
2023-05-17T06:34:20.512Z,95087.00
2023-05-17T06:35:20.500Z,95091.00
2023-05-17T06:36:20.544Z,95093.00
2023-05-17T06:37:20.622Z,95091.00
2023-05-17T06:38:20.635Z,95097.00
2023-05-17T06:39:20.735Z,95095.00
2023-05-17T06:40:20.673Z,95097.00
2023-05-17T06:41:20.665Z,95097.00
2023-05-17T06:42:20.704Z,95101.00
2023-05-17T06:43:20.729Z,95099.00
2023-05-17T06:44:20.820Z,95101.00
2023-05-17T06:45:20.844Z,95097.00
2023-05-17T06:46:20.879Z,95103.00
2023-05-17T06:47:20.970Z,95101.00
2023-05-17T06:48:21.105Z,95103.00
2023-05-17T06:49:21.084Z,95103.00
2023-05-17T06:50:21.149Z,95103.00
2023-05-17T06:51:21.168Z,95105.00
2023-05-17T06:52:21.241Z,95103.00
2023-05-17T06:53:21.349Z,95107.00
2023-05-17T06:54:21.880Z,95107.00
2023-05-17T06:55:21.540Z,95109.00
2023-05-17T06:56:21.422Z,95114.00
2023-05-17T06:57:21.522Z,95111.00
2023-05-17T06:58:21.509Z,95111.00
2023-05-17T06:59:21.598Z,95112.00
2023-05-17T07:00:21.643Z,95116.00
2023-05-17T07:01:21.634Z,95114.00
2023-05-17T07:02:21.660Z,95116.00
2023-05-17T07:03:21.767Z,95114.00
2023-05-17T07:04:21.799Z,95116.00
2023-05-17T07:05:21.857Z,95122.00
2023-05-17T07:06:21.838Z,95122.00
2023-05-17T07:07:21.806Z,95122.00
2023-05-17T07:08:21.882Z,95122.00
2023-05-17T07:09:21.930Z,95124.00
2023-05-17T07:10:21.999Z,95124.00
2023-05-17T07:11:21.966Z,95126.00
2023-05-17T07:12:21.988Z,95124.00
2023-05-17T07:13:22.061Z,95122.00
2023-05-17T07:14:22.073Z,95122.00
2023-05-17T07:15:22.107Z,95124.00
2023-05-17T07:16:22.130Z,95126.00
2023-05-17T07:17:22.162Z,95124.00
2023-05-17T07:18:22.268Z,95128.00
2023-05-17T07:19:22.293Z,95128.00
2023-05-17T07:20:22.240Z,95128.00
2023-05-17T07:21:22.213Z,95130.00
2023-05-17T07:22:22.252Z,95134.00
2023-05-17T07:23:22.301Z,95134.00
2023-05-17T07:24:22.304Z,95132.00
2023-05-17T07:25:22.285Z,95132.00
2023-05-17T07:26:22.328Z,95130.00
2023-05-17T07:27:22.339Z,95132.00
2023-05-17T07:28:22.373Z,95132.00
2023-05-17T07:29:22.377Z,95132.00
2023-05-17T07:30:22.377Z,95134.00
2023-05-17T07:31:22.428Z,95134.00
2023-05-17T07:32:22.447Z,95136.00
2023-05-17T07:33:22.446Z,95136.00
2023-05-17T07:34:22.491Z,95134.00
2023-05-17T07:35:22.495Z,95138.00
2023-05-17T07:36:22.727Z,95138.00
2023-05-17T07:37:22.578Z,95136.00
2023-05-17T07:38:22.575Z,95142.00
2023-05-17T07:39:22.591Z,95144.00
2023-05-17T07:40:22.591Z,95142.00
2023-05-17T07:41:22.652Z,95144.00
2023-05-17T07:42:22.651Z,95142.00
2023-05-17T07:43:22.769Z,95140.00
2023-05-17T07:44:22.714Z,95140.00
2023-05-17T07:45:22.692Z,95142.00
2023-05-17T07:46:22.711Z,95140.00
2023-05-17T07:47:22.703Z,95138.00
2023-05-17T07:48:22.784Z,95138.00
2023-05-17T07:49:22.850Z,95138.00
2023-05-17T07:50:22.795Z,95138.00
2023-05-17T07:51:22.785Z,95140.00
2023-05-17T07:52:22.839Z,95138.00
2023-05-17T07:53:22.876Z,95136.00
2023-05-17T07:54:22.856Z,95138.00
2023-05-17T07:55:22.835Z,95142.00
2023-05-17T07:56:22.862Z,95142.00
2023-05-17T07:57:22.870Z,95138.00
2023-05-17T07:58:22.922Z,95138.00
2023-05-17T07:59:22.937Z,95142.00
2023-05-17T08:00:22.928Z,95142.00
2023-05-17T08:01:22.939Z,95140.00
2023-05-17T08:02:22.970Z,95144.00
2023-05-17T08:03:23.128Z,95142.00
2023-05-17T08:04:23.062Z,95142.00
2023-05-17T08:05:22.956Z,95142.00
2023-05-17T08:06:23.010Z,95142.00
2023-05-17T08:07:23.007Z,95142.00
2023-05-17T08:08:23.013Z,95144.00
2023-05-17T08:09:23.033Z,95144.00
2023-05-17T08:10:23.068Z,95144.00
2023-05-17T08:11:23.262Z,95146.00
2023-05-17T08:12:23.041Z,95150.00
2023-05-17T08:13:23.124Z,95150.00
2023-05-17T08:14:23.123Z,95158.00
2023-05-17T08:15:23.276Z,95158.00
2023-05-17T08:16:23.096Z,95160.00
2023-05-17T08:17:23.158Z,95160.00
2023-05-17T08:18:23.198Z,95160.00
2023-05-17T08:19:23.247Z,95160.00
2023-05-17T08:20:23.129Z,95162.00
2023-05-17T08:21:23.140Z,95162.00
2023-05-17T08:22:23.143Z,95162.00
2023-05-17T08:23:23.178Z,95166.00
2023-05-17T08:24:23.198Z,95170.00
2023-05-17T08:25:23.193Z,95166.00
2023-05-17T08:26:23.276Z,95168.00
2023-05-17T08:27:23.244Z,95168.00
2023-05-17T08:28:23.429Z,95168.00
2023-05-17T08:29:23.293Z,95172.00
2023-05-17T08:31:23.360Z,95173.00
2023-05-17T08:32:23.360Z,95172.00
2023-05-17T08:33:23.379Z,95175.00
2023-05-17T08:34:23.265Z,95179.00
2023-05-17T08:35:23.995Z,95177.00
2023-05-17T08:36:23.269Z,95179.00
2023-05-17T08:37:23.344Z,95181.00
2023-05-17T08:38:23.284Z,95183.00
2023-05-17T08:39:23.278Z,95183.00
2023-05-17T08:40:23.422Z,95189.00
2023-05-17T08:41:23.251Z,95191.00
2023-05-17T08:42:23.210Z,95195.00
2023-05-17T08:43:24.225Z,95197.00
2023-05-17T08:44:23.314Z,95191.00
2023-05-17T08:45:23.208Z,95197.00
2023-05-17T08:46:23.156Z,95199.00
2023-05-17T08:47:23.184Z,95199.00
2023-05-17T08:48:23.377Z,95199.00
2023-05-17T08:49:23.234Z,95201.00
2023-05-17T08:50:23.117Z,95199.00
2023-05-17T08:51:23.163Z,95201.00
2023-05-17T08:52:23.141Z,95207.00
2023-05-17T08:53:23.223Z,95203.00
2023-05-17T08:54:23.152Z,95201.00
2023-05-17T08:55:23.122Z,95207.00
2023-05-17T08:56:23.106Z,95205.00
2023-05-17T08:57:23.100Z,95209.00
2023-05-17T08:58:23.097Z,95207.00
2023-05-17T08:59:23.111Z,95209.00
2023-05-17T09:00:23.085Z,95212.00
2023-05-17T09:01:25.112Z,95209.00
2023-05-17T09:02:23.123Z,95212.00
2023-05-17T09:03:23.182Z,95211.00
2023-05-17T09:04:23.118Z,95214.00
2023-05-17T09:05:23.070Z,95212.00
2023-05-17T09:06:23.098Z,95216.00
2023-05-17T09:07:23.025Z,95216.00
2023-05-17T09:08:23.029Z,95220.00
2023-05-17T09:09:23.003Z,95224.00
2023-05-17T09:10:23.065Z,95222.00
2023-05-17T09:11:22.999Z,95222.00
2023-05-17T09:12:25.393Z,95224.00
2023-05-17T09:13:23.037Z,95230.00
2023-05-17T09:14:22.970Z,95228.00
2023-05-17T09:15:23.023Z,95228.00
2023-05-17T09:16:22.986Z,95230.00
2023-05-17T09:17:23.184Z,95232.00
2023-05-17T09:18:23.001Z,95234.00
2023-05-17T09:19:24.552Z,95234.00
2023-05-17T09:20:23.115Z,95236.00
2023-05-17T09:21:22.925Z,95234.00
2023-05-17T09:22:22.926Z,95236.00
2023-05-17T09:23:23.002Z,95238.00
2023-05-17T09:24:24.008Z,95236.00
2023-05-17T09:25:22.905Z,95240.00
2023-05-17T09:26:22.899Z,95242.00
2023-05-17T09:27:22.904Z,95244.00
2023-05-17T09:28:22.874Z,95242.00
2023-05-17T09:29:22.870Z,95246.00
2023-05-17T09:30:25.144Z,95246.00
2023-05-17T09:31:22.950Z,95246.00
2023-05-17T09:32:23.087Z,95248.00
2023-05-17T09:33:23.022Z,95250.00
2023-05-17T09:34:23.026Z,95248.00
2023-05-17T09:35:23.085Z,95248.00
2023-05-17T09:36:23.088Z,95248.00
2023-05-17T09:37:23.131Z,95250.00
2023-05-17T09:38:24.873Z,95248.00
2023-05-17T09:39:23.199Z,95250.00
2023-05-17T09:40:23.284Z,95252.00
2023-05-17T09:41:23.294Z,95254.00
2023-05-17T09:42:23.294Z,95254.00
2023-05-17T09:43:23.348Z,95258.00
2023-05-17T09:44:23.535Z,95254.00
2023-05-17T09:45:23.373Z,95258.00
2023-05-17T09:46:23.361Z,95256.00
2023-05-17T09:47:23.374Z,95258.00
2023-05-17T09:48:23.457Z,95256.00
2023-05-17T09:49:23.438Z,95256.00
2023-05-17T09:50:26.024Z,95258.00
2023-05-17T09:51:23.530Z,95254.00
2023-05-17T09:52:23.503Z,95256.00
2023-05-17T09:53:23.475Z,95260.00
2023-05-17T09:54:23.483Z,95258.00
2023-05-17T09:55:23.447Z,95260.00
2023-05-17T09:56:23.461Z,95260.00
2023-05-17T09:57:23.479Z,95260.00
2023-05-17T09:58:23.467Z,95260.00
2023-05-17T09:59:23.485Z,95266.00
2023-05-17T10:00:23.469Z,95264.00
2023-05-17T10:01:23.446Z,95262.00
2023-05-17T10:02:23.494Z,95266.00
2023-05-17T10:03:23.543Z,95262.00
2023-05-17T10:04:23.419Z,95262.00
2023-05-17T10:05:23.514Z,95264.00
2023-05-17T10:06:38.355Z,95264.00
2023-05-17T10:07:24.395Z,95262.00
2023-05-17T10:08:23.402Z,95260.00
2023-05-17T10:09:23.428Z,95260.00
2023-05-17T10:10:23.394Z,95258.00
2023-05-17T10:11:23.369Z,95258.00
2023-05-17T10:12:23.819Z,95258.00
2023-05-17T10:13:23.349Z,95260.00
2023-05-17T10:14:23.503Z,95258.00
2023-05-17T10:15:23.355Z,95258.00
2023-05-17T10:16:23.292Z,95258.00
2023-05-17T10:17:23.330Z,95258.00
2023-05-17T10:18:23.368Z,95258.00
2023-05-17T10:19:23.473Z,95260.00
2023-05-17T10:20:23.282Z,95262.00
2023-05-17T10:21:23.283Z,95260.00
2023-05-17T10:22:24.014Z,95260.00
2023-05-17T10:23:23.359Z,95260.00
2023-05-17T10:24:23.407Z,95260.00
2023-05-17T10:25:23.389Z,95260.00
2023-05-17T10:26:23.395Z,95260.00
2023-05-17T10:27:23.451Z,95262.00
2023-05-17T10:28:23.487Z,95260.00
2023-05-17T10:29:23.447Z,95260.00
2023-05-17T10:30:23.517Z,95256.00
2023-05-17T10:31:23.538Z,95258.00
2023-05-17T10:32:23.756Z,95256.00
2023-05-17T10:33:23.664Z,95256.00
2023-05-17T10:34:23.673Z,95256.00
2023-05-17T10:35:23.632Z,95258.00
2023-05-17T10:36:23.673Z,95262.00
2023-05-17T10:37:23.720Z,95260.00
2023-05-17T10:38:28.892Z,95256.00
2023-05-17T10:39:24.748Z,95262.00
2023-05-17T10:40:23.735Z,95262.00
2023-05-17T10:41:23.749Z,95256.00
2023-05-17T10:42:23.704Z,95258.00
2023-05-17T10:43:23.679Z,95258.00
2023-05-17T10:44:23.709Z,95258.00
2023-05-17T10:45:23.666Z,95254.00
2023-05-17T10:46:23.714Z,95258.00
2023-05-17T10:47:23.784Z,95260.00
2023-05-17T10:48:23.697Z,95260.00
2023-05-17T10:49:24.689Z,95258.00
2023-05-17T10:50:23.627Z,95258.00
2023-05-17T10:51:23.660Z,95258.00
2023-05-17T10:52:23.646Z,95258.00
2023-05-17T10:53:23.615Z,95258.00
2023-05-17T10:54:23.647Z,95254.00
2023-05-17T10:55:23.582Z,95256.00
2023-05-17T10:56:23.598Z,95254.00
2023-05-17T10:57:23.610Z,95254.00
2023-05-17T10:58:23.562Z,95250.00
2023-05-17T10:59:23.542Z,95254.00
2023-05-17T11:00:23.534Z,95254.00
2023-05-17T11:01:23.565Z,95254.00
2023-05-17T11:02:23.575Z,95254.00
2023-05-17T11:03:23.545Z,95254.00
2023-05-17T11:04:23.563Z,95256.00
2023-05-17T11:05:23.610Z,95252.00
2023-05-17T11:06:25.313Z,95254.00
2023-05-17T11:07:23.547Z,95252.00
2023-05-17T11:08:23.610Z,95252.00
2023-05-17T11:09:23.604Z,95250.00
2023-05-17T11:10:23.625Z,95252.00
2023-05-17T11:11:23.664Z,95252.00
2023-05-17T11:12:23.693Z,95250.00
2023-05-17T11:13:23.675Z,95252.00
2023-05-17T11:14:23.696Z,95250.00
2023-05-17T11:15:23.715Z,95252.00
2023-05-17T11:16:23.765Z,95254.00
2023-05-17T11:17:23.815Z,95252.00
2023-05-17T11:18:30.691Z,95250.00
2023-05-17T11:19:24.875Z,95254.00
2023-05-17T11:20:23.932Z,95250.00
2023-05-17T11:21:23.835Z,95250.00
2023-05-17T11:22:23.778Z,95250.00
2023-05-17T11:23:23.807Z,95250.00
2023-05-17T11:24:23.773Z,95254.00
2023-05-17T11:25:23.760Z,95254.00
2023-05-17T11:26:23.761Z,95252.00
2023-05-17T11:27:23.809Z,95256.00
2023-05-17T11:28:23.718Z,95254.00
2023-05-17T11:29:23.779Z,95252.00
2023-05-17T11:30:23.793Z,95252.00
2023-05-17T11:31:23.729Z,95252.00
2023-05-17T11:32:23.759Z,95252.00
2023-05-17T11:33:32.816Z,95250.00
2023-05-17T11:34:24.784Z,95250.00
2023-05-17T11:35:23.684Z,95250.00
2023-05-17T11:36:23.684Z,95250.00
2023-05-17T11:37:23.737Z,95254.00
2023-05-17T11:38:23.657Z,95250.00
2023-05-17T11:39:23.733Z,95250.00
2023-05-17T11:40:23.646Z,95250.00
2023-05-17T11:41:26.894Z,95250.00
2023-05-17T11:42:23.614Z,95248.00
2023-05-17T11:43:23.632Z,95250.00
2023-05-17T11:44:23.656Z,95246.00
2023-05-17T11:45:24.869Z,95254.00